EGXE

Leeming Airport

Airport
ICAO code
EGXE
Summary
ICAO Region
EUR
ICAO Territory
Location

, England

Serving
Leeming
Elevation
132 ft
Coordinates
54° 17' 33" N , 1° 32' 7" W
Metar
EGXE 222320Z AUTO 25011KT 9999 -RA OVC027/// 04/01 Q0979

Runways

Designator Length Width Surface Rops
16/34 2292 46 ASP No/No

Airport map

Aerial View

SKYbrary Partners:

Safety knowledge contributed by: